createdAt,value
2023-03-03T00:04:56.100Z,1.20
2023-03-03T00:12:17.972Z,1.20
2023-03-03T00:19:20.448Z,1.10
2023-03-03T00:26:34.639Z,1.10
2023-03-03T00:33:45.590Z,1.00
2023-03-03T00:40:47.222Z,1.00
2023-03-03T00:47:47.356Z,0.90
2023-03-03T00:54:47.894Z,0.80
2023-03-03T01:01:48.122Z,0.70
2023-03-03T01:08:48.589Z,0.50
2023-03-03T01:15:50.001Z,0.40
2023-03-03T01:22:50.162Z,0.30
2023-03-03T01:29:50.975Z,0.20
2023-03-03T01:36:51.720Z,0.20
2023-03-03T01:43:52.155Z,0.10
2023-03-03T01:51:00.140Z,0.00
2023-03-03T01:58:08.845Z,0.00
2023-03-03T02:05:09.644Z,-0.10
2023-03-03T02:12:13.872Z,-0.20
2023-03-03T02:19:49.556Z,-0.20
2023-03-03T02:26:50.404Z,-0.30
2023-03-03T02:33:52.829Z,-0.30
2023-03-03T02:41:10.827Z,-0.30
2023-03-03T02:48:11.693Z,-0.20
2023-03-03T02:55:12.368Z,-0.10
2023-03-03T03:02:12.872Z,0.00
2023-03-03T03:09:15.084Z,0.10
2023-03-03T03:16:15.770Z,0.20
2023-03-03T03:23:16.544Z,0.20
2023-03-03T03:30:17.268Z,0.20
2023-03-03T03:37:17.566Z,0.20
2023-03-03T03:44:20.213Z,0.20
2023-03-03T03:51:20.942Z,0.10
2023-03-03T03:58:21.965Z,0.10
2023-03-03T04:05:28.311Z,0.10
2023-03-03T04:12:29.503Z,0.10
2023-03-03T04:19:30.093Z,0.10
2023-03-03T04:26:31.585Z,0.00
2023-03-03T04:33:33.606Z,0.00
2023-03-03T04:40:35.444Z,0.00
2023-03-03T04:47:36.732Z,0.10
2023-03-03T04:54:38.154Z,0.20
2023-03-03T05:01:38.778Z,0.20
2023-03-03T05:08:39.254Z,0.30
2023-03-03T05:15:42.217Z,0.40
2023-03-03T05:22:43.555Z,0.40
2023-03-03T05:29:44.194Z,0.40
2023-03-03T05:36:44.800Z,0.40
2023-03-03T05:43:45.253Z,0.50
2023-03-03T05:50:45.843Z,0.50
2023-03-03T05:57:46.463Z,0.50
2023-03-03T06:04:46.874Z,0.50
2023-03-03T06:11:47.207Z,0.60
2023-03-03T06:18:47.579Z,0.50
2023-03-03T06:25:48.060Z,0.60
2023-03-03T06:32:48.639Z,0.60
2023-03-03T06:39:49.047Z,0.60
2023-03-03T06:46:49.535Z,0.60
2023-03-03T06:53:54.964Z,0.70
2023-03-03T07:00:57.930Z,0.70
2023-03-03T07:07:58.285Z,0.70
2023-03-03T07:15:23.204Z,0.70
2023-03-03T07:22:27.716Z,0.70
2023-03-03T07:29:33.256Z,0.70
2023-03-03T07:36:36.624Z,0.70
2023-03-03T07:43:54.399Z,0.80
2023-03-03T07:50:55.219Z,0.90
2023-03-03T07:57:59.332Z,1.00
2023-03-03T08:04:59.967Z,1.00
2023-03-03T08:12:17.202Z,1.20
2023-03-03T08:19:18.460Z,1.30
2023-03-03T08:26:22.861Z,1.40
2023-03-03T08:33:22.800Z,1.50
2023-03-03T08:40:23.384Z,1.50
2023-03-03T08:47:23.806Z,1.50
2023-03-03T08:54:24.228Z,1.60
2023-03-03T09:01:24.703Z,1.80
2023-03-03T09:08:25.027Z,1.90
2023-03-03T09:15:30.490Z,2.10
2023-03-03T09:22:37.848Z,2.10
2023-03-03T09:29:38.330Z,2.20
2023-03-03T09:36:38.897Z,2.30
2023-03-03T09:43:57.747Z,2.50
2023-03-03T09:51:00.599Z,2.60
2023-03-03T09:58:19.237Z,2.80
2023-03-03T10:05:49.171Z,3.00
2023-03-03T10:13:19.705Z,3.20
2023-03-03T10:20:40.474Z,3.30
2023-03-03T10:28:00.151Z,3.40
2023-03-03T10:35:03.652Z,3.50
2023-03-03T10:42:12.231Z,3.70
2023-03-03T10:49:35.691Z,3.80
2023-03-03T10:56:55.057Z,3.80
2023-03-03T11:04:16.868Z,3.80
2023-03-03T11:11:33.663Z,3.90
2023-03-03T11:19:02.232Z,4.00
2023-03-03T11:26:14.715Z,4.10
2023-03-03T11:33:28.132Z,4.10
2023-03-03T11:40:36.238Z,4.20
2023-03-03T11:47:47.392Z,4.40
2023-03-03T11:55:02.923Z,4.50
2023-03-03T12:02:15.365Z,4.40
2023-03-03T12:09:39.654Z,4.30
2023-03-03T12:17:01.283Z,4.50
2023-03-03T12:24:27.012Z,4.70
2023-03-03T12:31:49.089Z,4.80
2023-03-03T12:39:35.120Z,4.80
2023-03-03T12:47:06.103Z,4.80
2023-03-03T12:54:24.993Z,4.70
2023-03-03T13:01:48.951Z,4.60
2023-03-03T13:08:59.971Z,4.60
2023-03-03T13:16:24.159Z,4.80
2023-03-03T13:23:44.767Z,5.10
2023-03-03T13:30:50.232Z,5.20
2023-03-03T13:37:54.949Z,5.20
2023-03-03T13:44:56.764Z,5.20
2023-03-03T13:52:03.181Z,5.40
2023-03-03T13:59:24.752Z,5.40
2023-03-03T14:06:29.741Z,5.40
2023-03-03T14:13:59.937Z,5.70
2023-03-03T14:21:21.037Z,6.20
2023-03-03T14:28:24.152Z,6.30
2023-03-03T14:35:26.133Z,6.60
2023-03-03T14:42:39.040Z,7.30
2023-03-03T14:49:40.645Z,7.80
2023-03-03T14:56:56.488Z,8.50
2023-03-03T15:04:01.141Z,9.40
2023-03-03T15:11:32.195Z,9.70
2023-03-03T15:18:33.553Z,10.10
2023-03-03T15:25:43.977Z,10.00
2023-03-03T15:33:23.146Z,10.50
2023-03-03T15:40:45.226Z,10.90
2023-03-03T15:47:57.533Z,10.40
2023-03-03T15:55:28.351Z,9.00
2023-03-03T16:02:51.809Z,7.50
2023-03-03T16:10:07.012Z,6.70
2023-03-03T16:17:23.807Z,6.10
2023-03-03T16:24:33.368Z,5.80
2023-03-03T16:31:38.757Z,5.50
2023-03-03T16:38:42.416Z,5.30
2023-03-03T16:45:43.221Z,5.30
2023-03-03T16:52:56.747Z,5.10
2023-03-03T17:00:18.643Z,5.00
2023-03-03T17:07:56.656Z,4.80
2023-03-03T17:15:14.620Z,4.70
2023-03-03T17:22:19.525Z,4.60
2023-03-03T17:29:39.203Z,4.50
2023-03-03T17:37:03.379Z,4.50
2023-03-03T17:44:35.216Z,4.40
2023-03-03T17:51:41.563Z,4.20
2023-03-03T17:59:02.967Z,4.00
2023-03-03T18:06:41.001Z,3.80
2023-03-03T18:13:54.101Z,3.60
2023-03-03T18:21:03.642Z,3.40
2023-03-03T18:28:04.596Z,3.30
2023-03-03T18:35:31.570Z,3.00
2023-03-03T18:42:38.061Z,2.90
2023-03-03T18:49:47.688Z,2.80
2023-03-03T18:56:55.294Z,2.60
2023-03-03T19:04:17.289Z,2.50
2023-03-03T19:11:54.498Z,2.30
2023-03-03T19:18:59.412Z,2.20
2023-03-03T19:26:24.661Z,2.10
2023-03-03T19:33:55.090Z,2.00
2023-03-03T19:41:18.007Z,2.00
2023-03-03T19:48:33.289Z,2.00
2023-03-03T19:55:52.854Z,2.10
2023-03-03T20:03:14.978Z,2.20
2023-03-03T20:10:27.214Z,2.30
2023-03-03T20:17:35.221Z,2.30
2023-03-03T20:25:01.144Z,2.50
2023-03-03T20:32:20.209Z,2.50
2023-03-03T20:40:02.455Z,2.50
2023-03-03T20:47:23.746Z,2.60
2023-03-03T20:54:38.791Z,2.70
2023-03-03T21:01:49.802Z,2.70
2023-03-03T21:08:57.345Z,2.70
2023-03-03T21:16:06.245Z,2.80
2023-03-03T21:23:10.250Z,2.80
2023-03-03T21:30:15.215Z,2.80
2023-03-03T21:37:44.578Z,2.90
2023-03-03T21:44:52.174Z,2.90
2023-03-03T21:51:52.532Z,3.00
2023-03-03T21:58:52.698Z,3.00
2023-03-03T22:05:53.897Z,3.00
2023-03-03T22:12:54.036Z,3.10
2023-03-03T22:19:55.535Z,3.00
2023-03-03T22:26:56.042Z,3.00
2023-03-03T22:33:56.453Z,3.00
2023-03-03T22:40:56.853Z,3.00
2023-03-03T22:47:57.247Z,3.00
2023-03-03T22:54:58.847Z,3.00
2023-03-03T23:02:00.583Z,3.00
2023-03-03T23:09:00.706Z,3.00
2023-03-03T23:16:02.565Z,3.00
2023-03-03T23:23:03.470Z,3.10
2023-03-03T23:30:05.829Z,3.10
2023-03-03T23:37:06.204Z,3.10
2023-03-03T23:44:06.615Z,3.10
2023-03-03T23:51:07.013Z,3.20
2023-03-03T23:58:07.565Z,3.10
